Time;durP1;ratioP1;P1;durP2;ratioP2;P2;SDS_P1;SDS_P2;PMS_P1;PMS_P2;Temp;Humidity;BMP_temperature;BMP_pressure;BME280_temperature;BME280_humidity;BME280_pressure;Samples;Min_cycle;Max_cycle;Signal;HPM_P1;HPM_P2
2023/02/24 00:01:59;;;;;;;43.85;20.13;;;6.50;99.90;;;;;;6183686;23;20354;-84
2023/02/24 00:04:38;;;;;;;39.57;17.33;;;6.40;99.90;;;;;;6182650;23;20771;-84
2023/02/24 00:07:04;;;;;;;29.98;14.43;;;6.20;99.90;;;;;;6179490;23;21285;-83
2023/02/24 00:09:32;;;;;;;30.73;14.73;;;6.10;99.90;;;;;;6182475;23;20351;-84
2023/02/24 00:12:07;;;;;;;27.75;14.60;;;6.10;99.90;;;;;;6182240;23;20356;-84
2023/02/24 00:14:36;;;;;;;25.38;12.77;;;6.10;99.90;;;;;;6180821;23;20380;-84
2023/02/24 00:17:02;;;;;;;25.38;12.35;;;5.90;99.90;;;;;;6183343;23;20466;-83
2023/02/24 00:19:32;;;;;;;30.27;12.10;;;5.90;99.90;;;;;;6182800;23;20352;-82
2023/02/24 00:22:02;;;;;;;26.33;11.38;;;5.90;99.90;;;;;;6182804;23;20362;-82
2023/02/24 00:24:29;;;;;;;25.33;11.02;;;5.80;99.90;;;;;;6183443;23;20364;-82
2023/02/24 00:26:59;;;;;;;22.20;10.63;;;5.60;99.90;;;;;;6182591;23;20374;-82
2023/02/24 00:29:29;;;;;;;21.85;10.80;;;5.60;99.90;;;;;;6179457;23;20372;-82
2023/02/24 00:31:59;;;;;;;22.60;10.07;;;5.60;99.90;;;;;;6183416;23;20501;-83
2023/02/24 00:34:30;;;;;;;25.65;10.02;;;5.60;99.90;;;;;;6184243;23;20371;-83
2023/02/24 00:36:57;;;;;;;21.48;9.50;;;5.60;99.90;;;;;;6185494;23;20376;-83
2023/02/24 00:39:27;;;;;;;18.38;8.55;;;5.60;99.90;;;;;;6181501;23;20347;-82
2023/02/24 00:41:57;;;;;;;20.47;8.63;;;5.50;99.90;;;;;;6181735;23;20356;-83
2023/02/24 00:44:23;;;;;;;23.38;8.60;;;5.50;99.90;;;;;;6178783;23;20359;-83
2023/02/24 00:46:50;;;;;;;17.65;7.50;;;5.40;99.90;;;;;;6176986;23;20778;-83
2023/02/24 00:49:18;;;;;;;19.27;7.45;;;5.50;99.90;;;;;;6182912;23;20393;-84
2023/02/24 00:51:48;;;;;;;22.77;7.28;;;5.40;99.90;;;;;;6177110;23;20386;-83
2023/02/24 00:54:18;;;;;;;19.50;7.10;;;5.40;99.90;;;;;;6181383;23;20379;-83
2023/02/24 00:56:47;;;;;;;19.00;6.75;;;5.40;99.90;;;;;;6184579;23;20799;-84
2023/02/24 00:59:15;;;;;;;20.37;6.97;;;5.40;99.90;;;;;;6181816;23;20348;-84
2023/02/24 01:01:45;;;;;;;21.83;6.82;;;5.30;99.90;;;;;;6182567;23;20422;-83
2023/02/24 01:04:12;;;;;;;19.83;6.70;;;5.30;99.90;;;;;;6182413;23;20905;-83
2023/02/24 01:06:42;;;;;;;18.70;6.03;;;5.20;99.90;;;;;;6182906;23;20357;-84
2023/02/24 01:09:15;;;;;;;18.20;5.20;;;5.00;99.90;;;;;;6171033;23;20824;-83
2023/02/24 01:12:16;;;;;;;20.30;5.45;;;4.90;99.90;;;;;;6176372;23;20348;-83
2023/02/24 01:14:46;;;;;;;21.50;5.07;;;4.80;99.90;;;;;;6181262;23;20411;-84
2023/02/24 01:17:15;;;;;;;16.77;4.95;;;4.60;99.90;;;;;;6181420;23;20356;-83
2023/02/24 01:19:44;;;;;;;16.38;5.30;;;4.60;99.90;;;;;;6184842;23;20383;-83
2023/02/24 01:22:16;;;;;;;17.65;5.68;;;4.60;99.90;;;;;;6187000;23;20344;-83
2023/02/24 01:24:43;;;;;;;22.07;5.30;;;4.50;99.90;;;;;;6186784;23;20383;-83
2023/02/24 01:29:53;;;;;;;21.45;5.18;;;4.40;99.90;;;;;;6175851;23;20387;-84
2023/02/24 01:32:26;;;;;;;16.42;4.63;;;4.40;99.90;;;;;;6158843;23;20351;-83
2023/02/24 01:34:54;;;;;;;21.02;5.28;;;4.50;99.90;;;;;;6160547;23;20359;-83
2023/02/24 01:37:22;;;;;;;19.67;5.90;;;4.50;99.90;;;;;;6186405;23;20348;-83
2023/02/24 01:39:52;;;;;;;16.15;5.18;;;4.50;99.90;;;;;;6187158;23;20348;-83
2023/02/24 01:42:22;;;;;;;19.50;5.00;;;4.50;99.90;;;;;;6140406;23;20368;-83
2023/02/24 01:44:51;;;;;;;18.65;4.63;;;4.50;99.90;;;;;;6139739;23;20348;-84
2023/02/24 01:47:29;;;;;;;19.93;4.77;;;4.50;99.90;;;;;;6138165;23;20362;-82
2023/02/24 01:49:57;;;;;;;21.50;4.80;;;4.40;99.90;;;;;;6166229;23;20343;-82
2023/02/24 01:52:29;;;;;;;20.52;5.35;;;4.40;99.90;;;;;;6152352;23;20359;-82
2023/02/24 01:55:09;;;;;;;15.57;4.57;;;4.20;99.90;;;;;;6158050;23;20893;-82
2023/02/24 01:57:38;;;;;;;18.00;4.63;;;4.20;99.90;;;;;;6182798;23;20371;-83
2023/02/24 02:00:10;;;;;;;16.33;5.07;;;4.30;99.90;;;;;;6156093;23;20369;-82
2023/02/24 02:02:45;;;;;;;15.52;4.43;;;4.20;99.90;;;;;;6156210;23;20379;-83
2023/02/24 02:05:11;;;;;;;13.73;3.85;;;4.10;99.90;;;;;;6184647;23;20425;-83
2023/02/24 02:07:44;;;;;;;15.03;4.50;;;4.00;99.90;;;;;;6179675;23;20398;-83
2023/02/24 02:10:12;;;;;;;15.70;4.80;;;3.90;99.90;;;;;;6156234;23;20407;-83
2023/02/24 02:12:46;;;;;;;18.42;5.18;;;4.00;99.90;;;;;;6182467;23;20391;-83
2023/02/24 02:15:59;;;;;;;17.65;4.55;;;4.00;99.90;;;;;;6183485;23;20400;-84
2023/02/24 02:18:57;;;;;;;12.65;4.22;;;4.00;99.90;;;;;;6182108;23;20367;-83
2023/02/24 02:21:59;;;;;;;18.17;4.68;;;4.00;99.90;;;;;;6182097;23;20675;-82
2023/02/24 02:24:47;;;;;;;14.17;4.53;;;4.00;99.90;;;;;;6158664;23;20359;-83
2023/02/24 02:27:28;;;;;;;16.33;4.78;;;3.90;99.90;;;;;;6160653;23;20344;-82
2023/02/24 02:31:01;;;;;;;;;;;;;;;;;;;;;
2023/02/24 02:33:43;;;;;;;11.80;3.47;;;3.90;99.90;;;;;;6178479;23;20952;-82
2023/02/24 02:36:46;;;;;;;17.67;4.35;;;4.00;99.90;;;;;;6187049;23;20344;-84
2023/02/24 02:39:18;;;;;;;17.02;4.47;;;3.90;99.90;;;;;;6159430;23;20806;-83
2023/02/24 02:42:00;;;;;;;16.30;4.33;;;4.00;99.90;;;;;;6185962;23;20382;-83
2023/02/24 02:45:09;;;;;;;17.05;4.88;;;3.90;99.90;;;;;;6161384;23;20418;-83
2023/02/24 02:47:42;;;;;;;16.08;4.25;;;3.80;99.90;;;;;;6186422;23;20352;-83
2023/02/24 02:50:17;;;;;;;17.90;4.68;;;3.80;99.90;;;;;;6190314;23;20343;-83
2023/02/24 02:53:23;;;;;;;17.17;4.47;;;3.80;99.90;;;;;;6163818;23;20379;-84
2023/02/24 02:56:23;;;;;;;15.77;4.70;;;3.80;99.90;;;;;;6161911;23;20351;-84
2023/02/24 02:59:17;;;;;;;14.63;4.40;;;3.70;99.90;;;;;;6157921;23;20364;-83
2023/02/24 03:02:22;;;;;;;17.08;4.30;;;3.60;99.90;;;;;;6147056;23;20366;-84
2023/02/24 03:04:57;;;;;;;16.00;4.90;;;3.70;99.90;;;;;;6183918;23;20718;-83
2023/02/24 03:07:58;;;;;;;;;;;;;;;;;;;;;
2023/02/24 03:10:33;;;;;;;12.70;4.25;;;3.80;99.90;;;;;;6177839;23;20394;-84
2023/02/24 03:13:07;;;;;;;15.88;4.45;;;3.70;99.90;;;;;;6155791;23;20375;-84
2023/02/24 03:15:42;;;;;;;17.05;4.82;;;3.70;99.90;;;;;;6155361;23;20442;-83
2023/02/24 03:18:17;;;;;;;15.02;4.80;;;3.80;99.90;;;;;;6180970;23;20344;-82
2023/02/24 03:20:56;;;;;;;15.45;4.50;;;3.90;99.90;;;;;;6154521;23;20355;-83
2023/02/24 03:23:27;;;;;;;14.38;4.53;;;3.70;99.90;;;;;;6181352;23;20458;-83
2023/02/24 03:26:20;;;;;;;17.15;5.00;;;3.60;99.90;;;;;;6154608;23;20358;-83
2023/02/24 03:29:01;;;;;;;15.27;4.60;;;3.60;99.90;;;;;;6153714;23;20367;-84
2023/02/24 03:31:58;;;;;;;18.95;5.25;;;3.70;99.90;;;;;;6153000;23;20364;-84
2023/02/24 03:34:36;;;;;;;18.20;5.43;;;3.70;99.90;;;;;;6169553;23;20375;-84
2023/02/24 03:37:05;;;;;;;16.90;5.43;;;3.70;99.90;;;;;;6153487;23;20356;-84
2023/02/24 03:39:31;;;;;;;20.90;5.32;;;3.60;99.90;;;;;;6182311;23;20348;-84
2023/02/24 03:42:12;;;;;;;15.95;5.50;;;3.60;99.90;;;;;;6152296;23;20446;-83
2023/02/24 03:44:37;;;;;;;19.35;5.95;;;3.70;99.90;;;;;;6153158;23;20375;-84
2023/02/24 03:47:03;;;;;;;17.90;5.80;;;3.60;99.90;;;;;;6152348;23;20667;-84
2023/02/24 03:49:30;;;;;;;19.67;5.57;;;3.70;99.90;;;;;;6180205;23;20639;-84
2023/02/24 03:52:33;;;;;;;18.17;5.72;;;3.70;99.90;;;;;;6152424;23;20410;-84
2023/02/24 03:55:05;;;;;;;20.25;6.90;;;3.60;99.90;;;;;;6180653;23;20375;-84
2023/02/24 03:57:58;;;;;;;17.85;5.75;;;3.70;99.90;;;;;;6177885;23;20458;-85
2023/02/24 04:00:37;;;;;;;19.20;5.50;;;3.60;99.90;;;;;;6152448;23;20455;-83
2023/02/24 04:03:29;;;;;;;14.15;5.47;;;3.50;99.90;;;;;;6179302;23;20351;-84
2023/02/24 04:06:10;;;;;;;15.63;5.88;;;3.60;99.90;;;;;;6161077;23;20360;-84
2023/02/24 04:08:51;;;;;;;14.45;5.05;;;3.60;99.90;;;;;;6147653;23;20454;-85
2023/02/24 04:11:36;;;;;;;16.50;5.68;;;3.60;99.90;;;;;;6153727;23;20367;-84
2023/02/24 04:14:11;;;;;;;12.75;5.10;;;3.60;99.90;;;;;;6180336;23;20375;-84
2023/02/24 04:16:39;;;;;;;13.45;4.80;;;3.50;99.90;;;;;;6180554;23;20828;-84
2023/02/24 04:19:16;;;;;;;13.13;5.05;;;3.60;99.90;;;;;;6180893;23;20358;-84
2023/02/24 04:21:44;;;;;;;11.85;4.97;;;3.60;99.90;;;;;;6154511;23;20472;-84
2023/02/24 04:24:14;;;;;;;15.77;5.50;;;3.60;99.90;;;;;;6154194;23;20356;-83
2023/02/24 04:26:43;;;;;;;13.60;4.70;;;3.60;99.90;;;;;;6180624;23;20344;-84
2023/02/24 04:29:19;;;;;;;15.70;5.27;;;3.70;99.90;;;;;;6180899;23;21785;-85
2023/02/24 04:32:01;;;;;;;12.80;4.63;;;3.60;99.90;;;;;;6154388;23;20356;-84
2023/02/24 04:34:31;;;;;;;15.43;4.50;;;3.50;99.90;;;;;;6181243;23;20367;-84
2023/02/24 04:37:01;;;;;;;14.70;5.20;;;3.60;99.90;;;;;;6179659;23;20783;-85
2023/02/24 04:39:37;;;;;;;14.93;5.28;;;3.50;99.90;;;;;;6180840;23;20344;-84
2023/02/24 04:42:13;;;;;;;13.55;4.55;;;3.40;99.90;;;;;;6153760;23;20471;-85
2023/02/24 04:44:42;;;;;;;14.10;5.00;;;3.30;99.90;;;;;;6181286;23;20343;-84
2023/02/24 04:47:11;;;;;;;13.60;4.10;;;3.40;99.90;;;;;;6180066;23;20358;-84
2023/02/24 04:49:39;;;;;;;11.25;4.43;;;3.40;99.90;;;;;;6153821;23;20355;-84
2023/02/24 04:52:08;;;;;;;11.48;4.13;;;3.60;99.90;;;;;;6155349;23;20399;-83
2023/02/24 04:54:34;;;;;;;11.45;4.03;;;3.50;99.90;;;;;;6183213;23;20367;-84
2023/02/24 04:57:00;;;;;;;11.05;4.18;;;3.50;99.90;;;;;;6181555;23;21038;-84
2023/02/24 04:59:27;;;;;;;12.65;4.60;;;3.40;99.90;;;;;;6180164;23;20351;-83
2023/02/24 05:01:53;;;;;;;8.63;3.80;;;3.50;99.90;;;;;;6158492;23;20359;-84
2023/02/24 05:04:25;;;;;;;10.30;3.92;;;3.50;99.90;;;;;;6156040;23;20359;-84
2023/02/24 05:06:51;;;;;;;9.97;3.50;;;3.50;99.90;;;;;;6155335;23;20835;-84
2023/02/24 05:09:17;;;;;;;15.73;4.17;;;3.50;99.90;;;;;;6183252;23;20351;-84
2023/02/24 05:11:49;;;;;;;14.40;3.80;;;3.50;99.90;;;;;;6181881;23;20347;-84
2023/02/24 05:14:19;;;;;;;13.43;4.30;;;3.50;99.90;;;;;;6155858;23;20375;-83
2023/02/24 05:16:50;;;;;;;10.18;4.10;;;3.40;99.90;;;;;;6154815;23;20379;-84
2023/02/24 05:22:05;;;;;;;14.67;3.97;;;3.50;99.90;;;;;;6182444;23;20355;-83
2023/02/24 05:24:32;;;;;;;11.15;3.90;;;3.50;99.90;;;;;;6183066;23;20347;-82
2023/02/24 05:26:58;;;;;;;12.75;3.90;;;3.30;99.90;;;;;;6182092;23;20382;-83
2023/02/24 05:29:31;;;;;;;12.50;3.60;;;3.30;99.90;;;;;;6182984;23;20426;-84
2023/02/24 05:32:01;;;;;;;14.02;3.97;;;3.40;99.90;;;;;;6156061;23;20410;-82
2023/02/24 05:34:30;;;;;;;11.95;3.40;;;3.50;99.90;;;;;;6183129;23;20398;-84
2023/02/24 05:37:09;;;;;;;10.65;3.30;;;3.40;99.90;;;;;;6131542;23;20810;-84
2023/02/24 05:39:39;;;;;;;14.25;3.70;;;3.40;99.90;;;;;;6155233;23;20355;-83
2023/02/24 05:42:06;;;;;;;9.00;3.20;;;3.40;99.90;;;;;;6156347;23;20360;-83
2023/02/24 05:44:31;;;;;;;11.80;3.05;;;3.50;99.90;;;;;;6182855;23;20411;-83
2023/02/24 05:47:01;;;;;;;10.88;3.20;;;3.50;99.90;;;;;;6155792;23;20355;-84
2023/02/24 05:49:33;;;;;;;12.75;3.72;;;3.40;99.90;;;;;;6181694;23;21157;-83
2023/02/24 05:52:06;;;;;;;15.02;3.58;;;3.40;99.90;;;;;;6155901;23;20402;-84
2023/02/24 05:54:38;;;;;;;11.88;3.42;;;3.40;99.90;;;;;;6183110;23;20364;-83
2023/02/24 05:57:10;;;;;;;14.20;3.60;;;3.30;99.90;;;;;;6154884;23;20356;-83
2023/02/24 05:59:37;;;;;;;12.18;4.00;;;3.30;99.90;;;;;;6157293;23;20386;-82
2023/02/24 06:02:10;;;;;;;12.02;3.50;;;3.30;99.90;;;;;;6181619;23;20343;-83
2023/02/24 06:04:54;;;;;;;12.15;3.33;;;3.30;99.90;;;;;;6180103;23;20443;-83
2023/02/24 06:07:28;;;;;;;13.02;3.40;;;3.30;99.90;;;;;;6154090;23;20434;-83
2023/02/24 06:10:00;;;;;;;14.45;4.20;;;3.20;99.90;;;;;;6181409;23;20355;-83
2023/02/24 06:12:30;;;;;;;14.57;4.30;;;3.30;99.90;;;;;;6153186;23;20358;-83
2023/02/24 06:14:59;;;;;;;11.23;3.55;;;3.20;99.90;;;;;;6154184;23;20403;-83
2023/02/24 06:17:29;;;;;;;10.95;3.70;;;3.20;99.90;;;;;;6155190;23;20442;-82
2023/02/24 06:19:55;;;;;;;14.20;3.78;;;3.20;99.90;;;;;;6179957;23;20344;-83
2023/02/24 06:22:23;;;;;;;12.52;4.20;;;3.30;99.90;;;;;;6180413;23;20733;-82
2023/02/24 06:24:49;;;;;;;14.32;4.25;;;3.30;99.90;;;;;;6181796;23;20834;-83
2023/02/24 06:27:23;;;;;;;15.40;4.75;;;3.30;99.90;;;;;;6154219;23;20344;-83
2023/02/24 06:29:53;;;;;;;10.90;3.90;;;3.30;99.90;;;;;;6124776;23;20392;-82
2023/02/24 06:32:22;;;;;;;14.90;3.90;;;3.40;99.90;;;;;;6126110;23;20361;-83
2023/02/24 06:34:48;;;;;;;12.80;3.70;;;3.30;99.90;;;;;;6152355;23;20432;-83
2023/02/24 06:37:20;;;;;;;14.88;4.65;;;3.40;99.90;;;;;;6152102;23;20373;-83
2023/02/24 06:39:47;;;;;;;11.65;4.05;;;3.30;99.90;;;;;;6126545;23;20359;-83
2023/02/24 06:42:13;;;;;;;11.52;3.30;;;3.30;99.90;;;;;;6126192;23;20381;-83
2023/02/24 06:44:40;;;;;;;13.40;4.38;;;3.40;99.90;;;;;;6125840;23;20452;-81
2023/02/24 06:47:17;;;;;;;11.60;3.65;;;3.40;99.90;;;;;;6124743;23;20820;-83
2023/02/24 06:49:43;;;;;;;12.40;3.83;;;3.40;99.90;;;;;;6126337;23;20386;-83
2023/02/24 06:52:18;;;;;;;11.18;3.85;;;3.40;99.90;;;;;;6152568;23;20352;-83
2023/02/24 06:54:47;;;;;;;12.52;5.40;;;3.50;99.90;;;;;;6125851;23;20396;-83
2023/02/24 06:57:12;;;;;;;12.93;4.13;;;3.50;99.90;;;;;;6125981;23;20411;-82
2023/02/24 06:59:44;;;;;;;12.82;3.30;;;3.40;99.90;;;;;;6150742;23;20720;-83
2023/02/24 07:02:16;;;;;;;12.00;3.38;;;3.50;99.90;;;;;;6125214;23;20436;-83
2023/02/24 07:04:47;;;;;;;14.15;3.80;;;3.40;99.90;;;;;;6151972;23;20478;-83
2023/02/24 07:07:18;;;;;;;11.55;3.63;;;3.50;99.90;;;;;;6151329;23;20392;-83
2023/02/24 07:09:47;;;;;;;11.95;3.13;;;3.50;99.90;;;;;;6125531;23;20350;-83
2023/02/24 07:12:19;;;;;;;9.63;3.20;;;3.40;99.90;;;;;;6125474;23;20356;-82
2023/02/24 07:14:50;;;;;;;11.13;2.93;;;3.50;99.90;;;;;;6125019;23;20393;-83
2023/02/24 07:17:23;;;;;;;8.77;2.90;;;3.50;99.90;;;;;;6151340;23;20356;-83
2023/02/24 07:19:51;;;;;;;9.57;3.03;;;3.50;99.90;;;;;;6151357;23;20407;-83
2023/02/24 07:22:23;;;;;;;12.67;3.67;;;3.60;99.90;;;;;;6122983;23;20361;-82
2023/02/24 07:24:49;;;;;;;10.27;3.58;;;3.50;99.90;;;;;;6150155;23;20376;-83
2023/02/24 07:27:22;;;;;;;11.95;3.58;;;3.50;99.90;;;;;;6150041;23;20341;-82
2023/02/24 07:29:51;;;;;;;8.55;3.38;;;3.70;99.90;;;;;;6140514;23;20363;-83
2023/02/24 07:32:21;;;;;;;10.63;3.85;;;3.70;99.90;;;;;;6178998;23;20454;-83
2023/02/24 07:34:49;;;;;;;8.90;3.33;;;3.80;99.90;;;;;;6154877;23;20403;-83
2023/02/24 07:37:23;;;;;;;12.60;3.90;;;3.90;99.90;;;;;;6153469;23;20355;-82
2023/02/24 07:39:50;;;;;;;8.73;2.92;;;3.90;99.90;;;;;;6155854;23;20357;-81
2023/02/24 07:42:16;;;;;;;7.80;3.80;;;3.90;99.90;;;;;;6181179;23;20347;-82
2023/02/24 07:44:50;;;;;;;9.95;3.70;;;3.80;99.90;;;;;;6181351;23;20670;-82
2023/02/24 07:47:20;;;;;;;10.00;3.10;;;3.80;99.90;;;;;;6180576;23;20343;-83
2023/02/24 07:50:25;;;;;;;10.55;3.50;;;3.70;99.90;;;;;;6180684;23;20347;-83
2023/02/24 07:52:52;;;;;;;8.93;3.15;;;3.80;99.90;;;;;;6176962;23;20340;-83
2023/02/24 07:55:19;;;;;;;9.68;3.50;;;3.70;99.90;;;;;;6179420;23;20436;-84
2023/02/24 07:57:47;;;;;;;9.43;3.20;;;3.60;99.90;;;;;;6155858;23;20435;-83
2023/02/24 08:00:27;;;;;;;11.00;3.45;;;3.70;99.90;;;;;;6156198;23;20359;-83
2023/02/24 08:02:56;;;;;;;11.30;3.87;;;3.70;99.90;;;;;;6159428;23;20893;-83
2023/02/24 08:05:24;;;;;;;10.32;3.20;;;3.60;99.90;;;;;;6184827;23;20340;-84
2023/02/24 08:07:51;;;;;;;13.18;3.95;;;3.60;99.90;;;;;;6159192;23;20379;-84
2023/02/24 08:14:12;;;;;;;12.75;3.67;;;3.80;99.90;;;;;;6022258;23;20423;-84
2023/02/24 08:17:18;;;;;;;10.95;3.33;;;3.80;99.90;;;;;;6151246;23;20513;-84
2023/02/24 08:23:43;;;;;;;11.80;3.58;;;4.20;99.90;;;;;;6191641;23;20367;-84
2023/02/24 08:26:43;;;;;;;10.27;3.60;;;4.30;99.90;;;;;;6126721;23;20414;-84
2023/02/24 08:29:09;;;;;;;9.23;3.40;;;4.20;99.90;;;;;;6121460;23;20430;-84
2023/02/24 08:32:24;;;;;;;9.65;3.78;;;4.30;99.90;;;;;;6188992;23;20334;-88
2023/02/24 08:34:55;;;;;;;9.32;3.50;;;4.40;99.90;;;;;;6164134;23;20368;-87
2023/02/24 08:37:24;;;;;;;11.18;3.67;;;4.50;99.90;;;;;;6193992;23;20397;-87
2023/02/24 08:43:25;;;;;;;;;;;;;;;;;;;;;
2023/02/24 08:46:24;;;;;;;14.25;4.35;;;4.70;99.90;;;;;;6194506;23;20432;-87
2023/02/24 08:49:00;;;;;;;10.45;3.85;;;4.70;99.90;;;;;;6167933;23;20386;-88
2023/02/24 08:51:34;;;;;;;10.32;3.58;;;4.70;99.90;;;;;;6168325;23;20347;-87
2023/02/24 08:54:14;;;;;;;13.07;3.78;;;4.80;99.90;;;;;;6167009;23;21298;-87
2023/02/24 08:56:53;;;;;;;;;;;;;;;;;;;;;
2023/02/24 08:59:48;;;;;;;13.63;3.72;;;4.80;99.90;;;;;;6195576;23;20363;-86
2023/02/24 09:05:56;;;;;;;14.60;4.20;;;4.70;99.90;;;;;;6190496;23;20352;-89
2023/02/24 09:11:21;;;;;;;13.25;4.53;;;4.90;99.90;;;;;;6152320;23;20405;-86
2023/02/24 09:13:56;;;;;;;9.75;3.40;;;4.80;99.90;;;;;;6165086;23;20399;-86
2023/02/24 09:16:23;;;;;;;9.05;3.75;;;4.70;99.90;;;;;;6166043;23;20408;-86
2023/02/24 09:22:13;;;;;;;8.02;4.00;;;5.00;99.90;;;;;;6193348;23;20354;-86
2023/02/24 09:24:34;;;;;;;11.88;4.10;;;4.80;99.90;;;;;;6190424;23;20351;-86
2023/02/24 09:26:59;;;;;;;12.02;3.95;;;4.90;99.90;;;;;;6166278;23;20679;-86
2023/02/24 09:29:36;;;;;;;10.55;3.70;;;4.90;99.90;;;;;;6195356;23;20362;-87
2023/02/24 09:32:05;;;;;;;10.68;3.85;;;5.10;99.90;;;;;;6162649;23;20351;-87
2023/02/24 09:34:52;;;;;;;;;;;;;;;;;;;;;
2023/02/24 09:37:24;;;;;;;10.73;3.60;;;5.70;99.90;;;;;;6186301;23;20363;-90
2023/02/24 09:40:37;;;;;;;7.93;3.20;;;5.90;99.90;;;;;;6161461;23;20360;-87
2023/02/24 09:42:58;;;;;;;7.10;3.03;;;5.90;99.90;;;;;;6186627;23;20659;-88
2023/02/24 09:45:35;;;;;;;8.73;3.30;;;5.80;99.90;;;;;;6161658;23;20787;-88
2023/02/24 09:48:15;;;;;;;7.20;3.03;;;5.90;99.90;;;;;;6158220;23;20375;-88
2023/02/24 09:51:04;;;;;;;9.68;4.15;;;5.90;99.90;;;;;;6156502;23;20359;-88
2023/02/24 09:53:37;;;;;;;13.40;3.63;;;6.10;99.90;;;;;;6162174;23;20438;-88
2023/02/24 09:56:30;;;;;;;7.95;2.80;;;5.90;99.90;;;;;;6161788;23;20360;-88
2023/02/24 10:00:09;;;;;;;;;;;;;;;;;;;;;
2023/02/24 10:03:18;;;;;;;7.70;2.72;;;5.90;99.90;;;;;;6174190;23;20360;-88
2023/02/24 10:06:34;;;;;;;9.27;2.97;;;5.90;99.90;;;;;;6147804;23;20344;-88
2023/02/24 10:09:25;;;;;;;6.65;2.60;;;5.90;99.90;;;;;;6158774;23;20356;-87
2023/02/24 10:12:02;;;;;;;8.63;2.53;;;6.00;99.90;;;;;;6185066;23;20427;-88
2023/02/24 10:14:38;;;;;;;11.02;3.75;;;5.60;99.90;;;;;;6159900;23;20427;-87
2023/02/24 10:17:38;;;;;;;10.02;2.97;;;5.40;99.90;;;;;;6164759;23;20356;-87
2023/02/24 10:20:38;;;;;;;7.57;2.40;;;5.50;99.90;;;;;;6155214;23;20367;-83
2023/02/24 10:23:33;;;;;;;8.23;2.80;;;5.40;99.90;;;;;;6185689;23;20347;-86
2023/02/24 10:26:30;;;;;;;9.95;3.00;;;5.40;99.90;;;;;;6158472;23;20363;-86
2023/02/24 10:29:33;;;;;;;7.95;3.20;;;5.40;99.90;;;;;;6151791;23;20477;-86
2023/02/24 10:32:17;;;;;;;11.38;2.90;;;5.20;99.90;;;;;;6126919;23;20380;-85
2023/02/24 10:34:48;;;;;;;8.30;3.20;;;5.10;99.90;;;;;;6128586;23;20847;-86
2023/02/24 10:37:19;;;;;;;9.40;2.92;;;5.20;99.90;;;;;;6127452;23;20353;-85
2023/02/24 10:39:50;;;;;;;7.72;2.55;;;5.10;99.90;;;;;;6127082;23;20437;-86
2023/02/24 10:42:33;;;;;;;7.32;2.50;;;5.10;99.90;;;;;;6128100;23;20400;-88
2023/02/24 10:45:25;;;;;;;7.53;2.90;;;5.20;99.90;;;;;;6128322;23;20355;-86
2023/02/24 10:47:59;;;;;;;10.90;2.78;;;5.10;99.90;;;;;;6129115;23;20461;-85
2023/02/24 10:50:33;;;;;;;6.18;2.50;;;5.00;99.90;;;;;;6129838;23;20450;-86
2023/02/24 10:53:33;;;;;;;7.25;3.00;;;4.90;99.90;;;;;;6129126;23;20792;-85
2023/02/24 10:56:26;;;;;;;7.32;2.67;;;4.80;99.90;;;;;;6126596;23;20483;-85
2023/02/24 11:02:23;;;;;;;7.55;2.78;;;4.60;99.90;;;;;;6155811;23;20357;-86
2023/02/24 11:07:44;;;;;;;8.35;2.95;;;4.30;99.90;;;;;;6166302;23;20717;-89
2023/02/24 11:10:31;;;;;;;11.50;3.33;;;4.20;99.90;;;;;;6133143;23;20372;-86
2023/02/24 11:18:38;;;;;;;6.15;2.63;;;4.10;99.90;;;;;;6157988;23;20404;-86
2023/02/24 11:21:10;;;;;;;8.80;3.30;;;3.90;99.90;;;;;;6159163;23;20353;-85
2023/02/24 11:23:51;;;;;;;7.28;2.83;;;4.00;99.90;;;;;;6132591;23;20353;-86
2023/02/24 11:26:39;;;;;;;11.32;3.33;;;4.10;99.90;;;;;;6131236;23;20812;-87
2023/02/24 11:29:18;;;;;;;8.65;3.38;;;4.20;99.90;;;;;;6135981;23;20374;-88
2023/02/24 11:32:01;;;;;;;11.73;3.53;;;4.10;99.90;;;;;;6159695;23;20845;-87
2023/02/24 11:35:04;;;;;;;8.20;3.05;;;4.10;99.90;;;;;;6183897;23;20684;-88
2023/02/24 11:37:40;;;;;;;9.90;3.40;;;3.90;99.90;;;;;;6157662;23;20356;-86
2023/02/24 11:40:17;;;;;;;11.48;3.47;;;3.70;99.90;;;;;;6159035;23;20351;-86
2023/02/24 11:42:55;;;;;;;8.45;3.83;;;3.70;99.90;;;;;;6158107;23;20348;-85
2023/02/24 11:45:48;;;;;;;10.32;3.92;;;3.70;99.90;;;;;;6159108;23;20869;-86
2023/02/24 11:48:42;;;;;;;9.00;3.92;;;3.60;99.90;;;;;;6164318;23;20427;-85
2023/02/24 11:51:17;;;;;;;8.70;4.00;;;3.40;99.90;;;;;;6161841;23;20343;-85
2023/02/24 11:53:50;;;;;;;8.95;4.03;;;3.40;99.90;;;;;;6184035;23;20898;-85
2023/02/24 11:56:44;;;;;;;9.05;3.53;;;3.40;99.90;;;;;;6157380;23;20442;-86
2023/02/24 11:59:12;;;;;;;8.10;3.20;;;3.40;99.90;;;;;;6141441;23;20403;-86
2023/02/24 12:02:06;;;;;;;7.47;3.55;;;3.40;99.90;;;;;;6182934;23;20823;-87
2023/02/24 12:04:51;;;;;;;7.85;3.75;;;3.40;99.90;;;;;;6156240;23;20443;-84
2023/02/24 12:07:19;;;;;;;9.05;3.72;;;3.30;99.90;;;;;;6158275;23;20402;-86
2023/02/24 12:10:37;;;;;;;10.20;4.03;;;3.20;99.90;;;;;;6182276;23;20410;-88
2023/02/24 12:13:35;;;;;;;8.30;4.05;;;3.00;99.90;;;;;;6133934;23;20343;-87
2023/02/24 12:16:27;;;;;;;6.80;3.70;;;3.00;99.90;;;;;;6159961;23;20422;-88
2023/02/24 12:19:19;;;;;;;11.20;4.00;;;2.90;99.90;;;;;;6155879;23;20356;-88
2023/02/24 12:22:49;;;;;;;9.85;4.18;;;2.80;99.90;;;;;;6154679;23;20398;-86
2023/02/24 12:26:12;;;;;;;6.60;3.40;;;2.70;99.90;;;;;;6041019;23;20356;-88
2023/02/24 12:33:12;;;;;;;;;;;;;;;;;;;;;
2023/02/24 12:57:23;;;;;;;8.90;3.50;;;2.50;99.90;;;;;;5854952;24;20481;-87
2023/02/24 13:11:11;;;;;;;;;;;;;;;;;;;;;
2023/02/24 13:17:54;;;;;;;;;;;;;;;;;;;;;
2023/02/24 13:31:51;;;;;;;7.53;4.07;;;2.90;99.90;;;;;;5983380;24;20892;-91
2023/02/24 13:35:17;;;;;;;8.35;4.38;;;2.90;99.90;;;;;;6057880;23;20445;-89
2023/02/24 13:37:47;;;;;;;9.55;4.55;;;2.90;99.90;;;;;;6000565;23;20431;-89
2023/02/24 13:41:19;;;;;;;;;;;;;;;;;;;;;
2023/02/24 13:48:10;;;;;;;14.52;9.77;;;3.10;99.90;;;;;;6071723;23;20351;-87
2023/02/24 13:58:37;;;;;;;8.73;4.67;;;3.10;99.90;;;;;;5967032;24;20347;-89
2023/02/24 14:01:28;;;;;;;8.00;4.25;;;2.90;99.90;;;;;;5971486;24;20355;-88
2023/02/24 14:04:16;;;;;;;7.05;4.30;;;2.90;99.90;;;;;;5973353;24;20360;-86
2023/02/24 14:07:11;;;;;;;5.90;4.53;;;3.00;99.90;;;;;;6027242;23;20869;-87
2023/02/24 14:10:04;;;;;;;6.50;4.47;;;3.10;99.90;;;;;;6086712;23;20352;-88
2023/02/24 14:12:33;;;;;;;6.18;4.30;;;3.00;99.90;;;;;;6170272;23;20440;-88
2023/02/24 14:15:04;;;;;;;7.00;4.70;;;3.00;99.90;;;;;;6146431;23;20407;-90
2023/02/24 14:17:41;;;;;;;7.43;4.93;;;3.00;99.90;;;;;;6147040;23;20356;-89
2023/02/24 14:20:25;;;;;;;6.85;4.47;;;2.90;99.90;;;;;;6151979;23;20383;-87
2023/02/24 14:22:57;;;;;;;7.70;5.13;;;3.00;99.90;;;;;;6188171;23;20343;-87
2023/02/24 14:25:28;;;;;;;9.40;5.15;;;2.90;99.90;;;;;;6158369;23;20359;-87
2023/02/24 14:27:55;;;;;;;8.70;5.45;;;3.00;99.90;;;;;;6159950;23;20356;-88
2023/02/24 14:30:29;;;;;;;8.25;5.30;;;3.10;99.90;;;;;;6158997;23;20359;-87
2023/02/24 14:32:56;;;;;;;7.20;5.40;;;3.10;99.90;;;;;;6160143;23;20805;-87
2023/02/24 14:35:38;;;;;;;7.20;5.22;;;3.00;99.90;;;;;;6159415;23;20359;-89
2023/02/24 14:38:35;;;;;;;;;;;;;;;;;;;;;
2023/02/24 14:41:06;;;;;;;10.65;5.88;;;3.00;99.90;;;;;;6149650;23;20465;-88
2023/02/24 14:43:41;;;;;;;7.63;5.40;;;3.10;99.90;;;;;;6130268;23;20374;-86
2023/02/24 14:46:07;;;;;;;7.07;5.83;;;3.00;99.90;;;;;;6130236;23;20446;-88
2023/02/24 14:48:55;;;;;;;7.65;5.47;;;3.00;99.90;;;;;;6134608;23;20342;-89
2023/02/24 14:51:36;;;;;;;8.65;6.05;;;3.10;99.90;;;;;;6131104;23;20352;-87
2023/02/24 14:54:07;;;;;;;7.03;5.93;;;3.20;99.90;;;;;;6134776;23;20449;-88
2023/02/24 14:56:36;;;;;;;6.95;6.32;;;3.10;99.90;;;;;;6132049;23;20342;-88
2023/02/24 14:59:26;;;;;;;10.23;7.13;;;3.10;99.90;;;;;;6132020;23;20361;-88
2023/02/24 15:01:54;;;;;;;7.43;6.47;;;3.00;99.90;;;;;;6132988;23;20352;-87
2023/02/24 15:04:32;;;;;;;9.32;6.75;;;3.10;99.90;;;;;;6132134;23;20823;-86
2023/02/24 15:07:28;;;;;;;9.48;7.68;;;3.10;99.90;;;;;;6130589;23;20350;-88
2023/02/24 15:09:55;;;;;;;7.13;6.43;;;3.10;99.90;;;;;;6132855;23;20432;-87
2023/02/24 15:13:05;;;;;;;13.50;12.00;;;3.10;99.90;;;;;;6132029;23;20353;-91
2023/02/24 15:15:37;;;;;;;11.38;7.88;;;3.10;99.90;;;;;;6137306;23;20468;-89
2023/02/24 15:18:28;;;;;;;8.35;7.30;;;3.10;99.90;;;;;;6131464;23;20425;-90
2023/02/24 15:21:04;;;;;;;8.70;6.50;;;3.10;99.90;;;;;;6132561;23;20345;-89
2023/02/24 15:23:38;;;;;;;8.73;7.18;;;3.00;99.90;;;;;;6132684;23;20352;-90
2023/02/24 15:26:08;;;;;;;7.43;6.70;;;2.90;99.90;;;;;;6131676;23;20348;-90
2023/02/24 15:28:43;;;;;;;7.40;6.68;;;3.00;99.90;;;;;;6133464;23;20341;-91
2023/02/24 15:31:20;;;;;;;7.72;6.90;;;3.00;99.90;;;;;;6134259;23;20338;-88
2023/02/24 15:34:15;;;;;;;7.13;6.43;;;3.00;99.90;;;;;;6133658;23;20373;-87
2023/02/24 15:36:50;;;;;;;8.38;7.03;;;3.10;99.90;;;;;;6142437;23;20361;-88
2023/02/24 15:39:33;;;;;;;7.43;6.60;;;3.10;99.90;;;;;;6132355;23;20413;-89
2023/02/24 15:42:32;;;;;;;8.73;7.82;;;3.20;99.90;;;;;;6129131;23;20345;-88